sensor_id;sensor_type;location;lat;lon;timestamp;pressure;altitude;pressure_sealevel;temperature;humidity
39613;BME280;25303;48.896;13.342;2023-02-23T00:00:43;92445.66;;;7.34;69.40
39613;BME280;25303;48.896;13.342;2023-02-23T00:03:27;92439.09;;;7.32;69.49
39613;BME280;25303;48.896;13.342;2023-02-23T00:06:11;92444.41;;;7.20;70.09
39613;BME280;25303;48.896;13.342;2023-02-23T00:08:54;92442.16;;;7.17;70.03
39613;BME280;25303;48.896;13.342;2023-02-23T00:11:39;92434.56;;;7.07;70.34
39613;BME280;25303;48.896;13.342;2023-02-23T00:14:24;92436.81;;;7.10;70.50
39613;BME280;25303;48.896;13.342;2023-02-23T00:17:07;92437.47;;;7.12;70.69
39613;BME280;25303;48.896;13.342;2023-02-23T00:19:55;92435.72;;;7.13;70.54
39613;BME280;25303;48.896;13.342;2023-02-23T00:22:38;92433.16;;;7.13;70.62
39613;BME280;25303;48.896;13.342;2023-02-23T00:25:22;92433.31;;;7.11;70.71
39613;BME280;25303;48.896;13.342;2023-02-23T00:28:06;92429.78;;;7.12;70.65
39613;BME280;25303;48.896;13.342;2023-02-23T00:30:50;92433.44;;;7.10;70.77
39613;BME280;25303;48.896;13.342;2023-02-23T00:33:33;92432.13;;;7.06;70.58
39613;BME280;25303;48.896;13.342;2023-02-23T00:36:16;92434.84;;;7.04;70.67
39613;BME280;25303;48.896;13.342;2023-02-23T00:39:01;92440.75;;;7.05;70.65
39613;BME280;25303;48.896;13.342;2023-02-23T00:41:47;92432.00;;;7.07;70.74
39613;BME280;25303;48.896;13.342;2023-02-23T00:44:32;92434.25;;;7.10;70.67
39613;BME280;25303;48.896;13.342;2023-02-23T00:47:16;92439.00;;;7.05;70.51
39613;BME280;25303;48.896;13.342;2023-02-23T00:49:59;92430.66;;;7.03;70.52
39613;BME280;25303;48.896;13.342;2023-02-23T00:52:43;92437.69;;;7.01;70.62
39613;BME280;25303;48.896;13.342;2023-02-23T00:55:26;92433.66;;;6.98;70.58
39613;BME280;25303;48.896;13.342;2023-02-23T00:58:08;92431.38;;;6.95;70.71
39613;BME280;25303;48.896;13.342;2023-02-23T01:00:57;92429.13;;;6.92;70.70
39613;BME280;25303;48.896;13.342;2023-02-23T01:03:41;92431.69;;;6.92;70.60
39613;BME280;25303;48.896;13.342;2023-02-23T01:06:24;92436.13;;;6.90;70.48
39613;BME280;25303;48.896;13.342;2023-02-23T01:09:09;92436.41;;;6.87;70.30
39613;BME280;25303;48.896;13.342;2023-02-23T01:11:55;92434.97;;;6.84;70.68
39613;BME280;25303;48.896;13.342;2023-02-23T01:14:41;92429.47;;;6.79;70.76
39613;BME280;25303;48.896;13.342;2023-02-23T01:17:26;92429.09;;;6.74;71.19
39613;BME280;25303;48.896;13.342;2023-02-23T01:20:12;92428.44;;;6.72;71.04
39613;BME280;25303;48.896;13.342;2023-02-23T01:22:59;92427.94;;;6.68;70.88
39613;BME280;25303;48.896;13.342;2023-02-23T01:25:43;92425.50;;;6.67;70.93
39613;BME280;25303;48.896;13.342;2023-02-23T01:28:27;92423.38;;;6.62;71.18
39613;BME280;25303;48.896;13.342;2023-02-23T01:31:09;92425.56;;;6.57;71.21
39613;BME280;25303;48.896;13.342;2023-02-23T01:33:54;92424.75;;;6.57;71.54
39613;BME280;25303;48.896;13.342;2023-02-23T01:36:39;92428.09;;;6.57;71.47
39613;BME280;25303;48.896;13.342;2023-02-23T01:39:22;92424.88;;;6.55;71.41
39613;BME280;25303;48.896;13.342;2023-02-23T01:42:09;92420.09;;;6.52;71.60
39613;BME280;25303;48.896;13.342;2023-02-23T01:45:18;92418.59;;;6.49;71.74
39613;BME280;25303;48.896;13.342;2023-02-23T01:48:06;92424.38;;;6.51;71.80
39613;BME280;25303;48.896;13.342;2023-02-23T01:50:57;92418.31;;;6.52;71.75
39613;BME280;25303;48.896;13.342;2023-02-23T01:53:47;92419.25;;;6.51;71.86
39613;BME280;25303;48.896;13.342;2023-02-23T01:56:39;92412.03;;;6.47;72.06
39613;BME280;25303;48.896;13.342;2023-02-23T01:59:28;92419.97;;;6.44;71.88
39613;BME280;25303;48.896;13.342;2023-02-23T02:02:16;92420.25;;;6.41;71.72
39613;BME280;25303;48.896;13.342;2023-02-23T02:05:02;92417.69;;;6.41;71.77
39613;BME280;25303;48.896;13.342;2023-02-23T02:07:51;92413.53;;;6.39;71.93
39613;BME280;25303;48.896;13.342;2023-02-23T02:10:39;92417.19;;;6.37;72.10
39613;BME280;25303;48.896;13.342;2023-02-23T02:13:27;92414.78;;;6.35;72.15
39613;BME280;25303;48.896;13.342;2023-02-23T02:16:23;92416.38;;;6.36;72.06
39613;BME280;25303;48.896;13.342;2023-02-23T02:19:37;92405.06;;;6.39;72.18
39613;BME280;25303;48.896;13.342;2023-02-23T02:22:45;92409.91;;;6.42;72.37
39613;BME280;25303;48.896;13.342;2023-02-23T02:25:43;92411.63;;;6.42;72.26
39613;BME280;25303;48.896;13.342;2023-02-23T02:29:06;92401.28;;;6.43;72.18
39613;BME280;25303;48.896;13.342;2023-02-23T02:32:12;92408.00;;;6.44;72.44
39613;BME280;25303;48.896;13.342;2023-02-23T02:35:24;92408.81;;;6.45;72.49
39613;BME280;25303;48.896;13.342;2023-02-23T02:38:31;92400.19;;;6.46;72.47
39613;BME280;25303;48.896;13.342;2023-02-23T02:41:21;92408.28;;;6.41;72.54
39613;BME280;25303;48.896;13.342;2023-02-23T02:44:12;92401.19;;;6.35;72.87
39613;BME280;25303;48.896;13.342;2023-02-23T02:47:00;92403.50;;;6.28;72.72
39613;BME280;25303;48.896;13.342;2023-02-23T02:49:50;92404.63;;;6.16;72.95
39613;BME280;25303;48.896;13.342;2023-02-23T02:52:36;92398.91;;;6.04;72.94
39613;BME280;25303;48.896;13.342;2023-02-23T02:55:27;92403.34;;;5.92;73.22
39613;BME280;25303;48.896;13.342;2023-02-23T02:58:16;92395.81;;;5.90;73.45
39613;BME280;25303;48.896;13.342;2023-02-23T03:01:05;92400.94;;;5.90;73.48
39613;BME280;25303;48.896;13.342;2023-02-23T03:04:19;92397.28;;;5.93;73.48
39613;BME280;25303;48.896;13.342;2023-02-23T03:07:25;92397.00;;;5.96;73.52
39613;BME280;25303;48.896;13.342;2023-02-23T03:10:35;92399.28;;;5.99;73.36
39613;BME280;25303;48.896;13.342;2023-02-23T03:13:42;92403.34;;;6.02;73.67
39613;BME280;25303;48.896;13.342;2023-02-23T03:16:54;92406.28;;;6.07;73.64
39613;BME280;25303;48.896;13.342;2023-02-23T03:19:57;92409.09;;;6.14;73.59
39613;BME280;25303;48.896;13.342;2023-02-23T03:23:08;92403.25;;;6.21;73.67
39613;BME280;25303;48.896;13.342;2023-02-23T03:26:15;92402.72;;;6.28;73.32
39613;BME280;25303;48.896;13.342;2023-02-23T03:29:29;92404.31;;;6.29;73.37
39613;BME280;25303;48.896;13.342;2023-02-23T03:32:35;92409.28;;;6.30;73.04
39613;BME280;25303;48.896;13.342;2023-02-23T03:35:43;92413.28;;;6.33;73.01
39613;BME280;25303;48.896;13.342;2023-02-23T03:38:51;92408.72;;;6.36;73.01
39613;BME280;25303;48.896;13.342;2023-02-23T03:41:56;92408.56;;;6.38;72.98
39613;BME280;25303;48.896;13.342;2023-02-23T03:45:00;92406.44;;;6.33;72.86
39613;BME280;25303;48.896;13.342;2023-02-23T03:48:07;92414.25;;;6.32;73.05
39613;BME280;25303;48.896;13.342;2023-02-23T03:51:11;92412.25;;;6.26;72.99
39613;BME280;25303;48.896;13.342;2023-02-23T03:54:15;92414.44;;;6.20;73.12
39613;BME280;25303;48.896;13.342;2023-02-23T03:57:20;92420.25;;;6.13;73.37
39613;BME280;25303;48.896;13.342;2023-02-23T04:00:26;92419.06;;;6.07;73.68
39613;BME280;25303;48.896;13.342;2023-02-23T04:03:31;92414.75;;;6.07;73.48
39613;BME280;25303;48.896;13.342;2023-02-23T04:06:37;92418.41;;;6.05;73.78
39613;BME280;25303;48.896;13.342;2023-02-23T04:09:39;92429.13;;;6.08;73.65
39613;BME280;25303;48.896;13.342;2023-02-23T04:12:46;92435.44;;;6.14;73.78
39613;BME280;25303;48.896;13.342;2023-02-23T04:15:52;92429.91;;;6.19;73.91
39613;BME280;25303;48.896;13.342;2023-02-23T04:18:37;92425.16;;;6.24;73.86
39613;BME280;25303;48.896;13.342;2023-02-23T04:21:21;92428.13;;;6.29;73.82
39613;BME280;25303;48.896;13.342;2023-02-23T04:24:04;92426.91;;;6.33;73.75
39613;BME280;25303;48.896;13.342;2023-02-23T04:26:46;92420.16;;;6.32;73.54
39613;BME280;25303;48.896;13.342;2023-02-23T04:29:31;92429.88;;;6.29;73.67
39613;BME280;25303;48.896;13.342;2023-02-23T04:32:16;92428.81;;;6.21;74.00
39613;BME280;25303;48.896;13.342;2023-02-23T04:34:59;92431.94;;;6.15;73.76
39613;BME280;25303;48.896;13.342;2023-02-23T04:37:42;92427.53;;;6.07;74.21
39613;BME280;25303;48.896;13.342;2023-02-23T04:40:25;92430.66;;;6.01;74.46
39613;BME280;25303;48.896;13.342;2023-02-23T04:43:09;92422.28;;;5.99;74.35
39613;BME280;25303;48.896;13.342;2023-02-23T04:45:54;92420.69;;;5.98;74.58
39613;BME280;25303;48.896;13.342;2023-02-23T04:48:37;92423.50;;;5.95;74.22
39613;BME280;25303;48.896;13.342;2023-02-23T04:51:20;92421.88;;;5.94;74.36
39613;BME280;25303;48.896;13.342;2023-02-23T04:54:03;92420.28;;;5.93;74.44
39613;BME280;25303;48.896;13.342;2023-02-23T04:56:46;92424.16;;;5.97;74.42
39613;BME280;25303;48.896;13.342;2023-02-23T04:59:29;92425.66;;;6.00;74.46
39613;BME280;25303;48.896;13.342;2023-02-23T05:02:14;92426.47;;;6.00;74.56
39613;BME280;25303;48.896;13.342;2023-02-23T05:04:57;92427.41;;;5.99;74.47
39613;BME280;25303;48.896;13.342;2023-02-23T05:07:39;92424.84;;;5.99;74.53
39613;BME280;25303;48.896;13.342;2023-02-23T05:10:23;92423.78;;;6.02;74.68
39613;BME280;25303;48.896;13.342;2023-02-23T05:13:06;92424.16;;;6.07;74.56
39613;BME280;25303;48.896;13.342;2023-02-23T05:15:49;92423.47;;;6.15;74.45
39613;BME280;25303;48.896;13.342;2023-02-23T05:18:33;92419.69;;;6.19;74.31
39613;BME280;25303;48.896;13.342;2023-02-23T05:21:16;92425.31;;;6.22;73.96
39613;BME280;25303;48.896;13.342;2023-02-23T05:23:59;92420.72;;;6.26;73.71
39613;BME280;25303;48.896;13.342;2023-02-23T05:26:42;92420.44;;;6.29;73.64
39613;BME280;25303;48.896;13.342;2023-02-23T05:29:25;92423.66;;;6.31;73.57
39613;BME280;25303;48.896;13.342;2023-02-23T05:32:08;92430.41;;;6.32;73.50
39613;BME280;25303;48.896;13.342;2023-02-23T05:34:52;92428.63;;;6.33;73.40
39613;BME280;25303;48.896;13.342;2023-02-23T05:37:35;92420.84;;;6.34;73.55
39613;BME280;25303;48.896;13.342;2023-02-23T05:40:18;92419.91;;;6.35;73.45
39613;BME280;25303;48.896;13.342;2023-02-23T05:43:01;92430.91;;;6.36;73.35
39613;BME280;25303;48.896;13.342;2023-02-23T05:45:44;92422.44;;;6.35;73.44
39613;BME280;25303;48.896;13.342;2023-02-23T05:48:27;92421.63;;;6.35;73.41
39613;BME280;25303;48.896;13.342;2023-02-23T05:51:13;92431.06;;;6.34;73.38
39613;BME280;25303;48.896;13.342;2023-02-23T05:53:56;92424.78;;;6.29;73.36
39613;BME280;25303;48.896;13.342;2023-02-23T05:56:39;92436.88;;;6.27;73.17
39613;BME280;25303;48.896;13.342;2023-02-23T05:59:22;92432.31;;;6.20;73.23
39613;BME280;25303;48.896;13.342;2023-02-23T06:02:05;92435.31;;;6.16;73.46
39613;BME280;25303;48.896;13.342;2023-02-23T06:04:48;92431.56;;;6.10;73.36
39613;BME280;25303;48.896;13.342;2023-02-23T06:07:32;92435.19;;;6.07;73.46
39613;BME280;25303;48.896;13.342;2023-02-23T06:10:16;92429.84;;;6.01;73.70
39613;BME280;25303;48.896;13.342;2023-02-23T06:12:59;92437.22;;;5.94;74.18
39613;BME280;25303;48.896;13.342;2023-02-23T06:15:43;92439.09;;;5.92;73.92
39613;BME280;25303;48.896;13.342;2023-02-23T06:18:27;92437.66;;;5.89;74.00
39613;BME280;25303;48.896;13.342;2023-02-23T06:21:10;92439.69;;;5.86;74.30
39613;BME280;25303;48.896;13.342;2023-02-23T06:23:54;92444.78;;;5.86;74.20
39613;BME280;25303;48.896;13.342;2023-02-23T06:26:40;92443.97;;;5.85;74.43
39613;BME280;25303;48.896;13.342;2023-02-23T06:29:25;92451.91;;;5.82;74.77
39613;BME280;25303;48.896;13.342;2023-02-23T06:32:08;92449.50;;;5.81;74.81
39613;BME280;25303;48.896;13.342;2023-02-23T06:34:58;92450.00;;;5.84;74.92
39613;BME280;25303;48.896;13.342;2023-02-23T06:37:42;92449.75;;;5.87;74.84
39613;BME280;25303;48.896;13.342;2023-02-23T06:40:26;92444.47;;;5.89;74.70
39613;BME280;25303;48.896;13.342;2023-02-23T06:43:09;92449.19;;;5.93;74.80
39613;BME280;25303;48.896;13.342;2023-02-23T06:45:52;92450.41;;;5.99;74.81
39613;BME280;25303;48.896;13.342;2023-02-23T06:48:36;92452.72;;;6.02;74.68
39613;BME280;25303;48.896;13.342;2023-02-23T06:51:19;92457.25;;;6.08;74.78
39613;BME280;25303;48.896;13.342;2023-02-23T06:54:02;92460.03;;;6.15;74.65
39613;BME280;25303;48.896;13.342;2023-02-23T06:56:47;92462.06;;;6.21;74.60
39613;BME280;25303;48.896;13.342;2023-02-23T06:59:30;92463.25;;;6.27;74.53
39613;BME280;25303;48.896;13.342;2023-02-23T07:02:13;92462.53;;;6.35;74.45
39613;BME280;25303;48.896;13.342;2023-02-23T07:04:56;92463.59;;;6.42;74.18
39613;BME280;25303;48.896;13.342;2023-02-23T07:07:39;92470.56;;;6.50;73.93
39613;BME280;25303;48.896;13.342;2023-02-23T07:10:22;92463.41;;;6.53;73.83
39613;BME280;25303;48.896;13.342;2023-02-23T07:13:06;92468.91;;;6.59;73.84
39613;BME280;25303;48.896;13.342;2023-02-23T07:15:49;92467.66;;;6.63;73.71
39613;BME280;25303;48.896;13.342;2023-02-23T07:18:32;92467.38;;;6.66;73.80
39613;BME280;25303;48.896;13.342;2023-02-23T07:21:15;92465.34;;;6.69;73.67
39613;BME280;25303;48.896;13.342;2023-02-23T07:23:59;92470.03;;;6.74;73.44
39613;BME280;25303;48.896;13.342;2023-02-23T07:26:43;92469.75;;;6.77;73.50
39613;BME280;25303;48.896;13.342;2023-02-23T07:29:29;92467.72;;;6.81;73.28
39613;BME280;25303;48.896;13.342;2023-02-23T07:32:12;92467.44;;;6.84;73.40
39613;BME280;25303;48.896;13.342;2023-02-23T07:34:55;92464.56;;;6.87;73.18
39613;BME280;25303;48.896;13.342;2023-02-23T07:37:38;92473.56;;;6.91;73.18
39613;BME280;25303;48.896;13.342;2023-02-23T07:40:20;92469.94;;;6.94;73.19
39613;BME280;25303;48.896;13.342;2023-02-23T07:43:03;92472.19;;;6.97;73.14
39613;BME280;25303;48.896;13.342;2023-02-23T07:45:47;92471.78;;;7.02;73.06
39613;BME280;25303;48.896;13.342;2023-02-23T07:48:31;92472.41;;;7.04;72.93
39613;BME280;25303;48.896;13.342;2023-02-23T07:51:15;92475.63;;;7.06;72.84
39613;BME280;25303;48.896;13.342;2023-02-23T07:54:01;92481.13;;;7.11;72.85
39613;BME280;25303;48.896;13.342;2023-02-23T07:56:45;92475.56;;;7.15;72.89
39613;BME280;25303;48.896;13.342;2023-02-23T07:59:28;92483.13;;;7.17;72.79
39613;BME280;25303;48.896;13.342;2023-02-23T08:02:13;92471.63;;;7.21;72.60
39613;BME280;25303;48.896;13.342;2023-02-23T08:04:56;92476.59;;;7.23;72.36
39613;BME280;25303;48.896;13.342;2023-02-23T08:07:39;92483.19;;;7.25;72.04
39613;BME280;25303;48.896;13.342;2023-02-23T08:10:22;92488.31;;;7.25;72.02
39613;BME280;25303;48.896;13.342;2023-02-23T08:13:05;92496.81;;;7.26;72.01
39613;BME280;25303;48.896;13.342;2023-02-23T08:15:48;92490.88;;;7.25;71.90
39613;BME280;25303;48.896;13.342;2023-02-23T08:18:33;92493.59;;;7.24;71.73
39613;BME280;25303;48.896;13.342;2023-02-23T08:21:15;92497.75;;;7.25;71.83
39613;BME280;25303;48.896;13.342;2023-02-23T08:23:59;92506.09;;;7.27;71.97
39613;BME280;25303;48.896;13.342;2023-02-23T08:26:42;92501.09;;;7.25;71.70
39613;BME280;25303;48.896;13.342;2023-02-23T08:29:25;92500.16;;;7.26;71.92
39613;BME280;25303;48.896;13.342;2023-02-23T08:32:07;92504.16;;;7.29;72.01
39613;BME280;25303;48.896;13.342;2023-02-23T08:34:52;92504.03;;;7.30;71.65
39613;BME280;25303;48.896;13.342;2023-02-23T08:37:36;92503.88;;;7.32;71.63
39613;BME280;25303;48.896;13.342;2023-02-23T08:40:19;92517.50;;;7.33;71.55
39613;BME280;25303;48.896;13.342;2023-02-23T08:43:02;92508.88;;;7.34;71.70
39613;BME280;25303;48.896;13.342;2023-02-23T08:45:45;92510.34;;;7.36;71.82
39613;BME280;25303;48.896;13.342;2023-02-23T08:48:27;92504.44;;;7.36;71.55
39613;BME280;25303;48.896;13.342;2023-02-23T08:51:12;92505.22;;;7.36;71.70
39613;BME280;25303;48.896;13.342;2023-02-23T08:53:55;92512.91;;;7.36;71.50
39613;BME280;25303;48.896;13.342;2023-02-23T08:56:39;92501.69;;;7.37;71.72
39613;BME280;25303;48.896;13.342;2023-02-23T08:59:21;92502.50;;;7.38;71.57
39613;BME280;25303;48.896;13.342;2023-02-23T09:02:05;92504.09;;;7.39;71.63
39613;BME280;25303;48.896;13.342;2023-02-23T09:04:49;92507.34;;;7.41;71.86
39613;BME280;25303;48.896;13.342;2023-02-23T09:07:36;92499.53;;;7.42;71.86
39613;BME280;25303;48.896;13.342;2023-02-23T09:10:19;92510.28;;;7.46;71.69
39613;BME280;25303;48.896;13.342;2023-02-23T09:13:05;92507.56;;;7.48;71.88
39613;BME280;25303;48.896;13.342;2023-02-23T09:15:48;92499.88;;;7.48;71.63
39613;BME280;25303;48.896;13.342;2023-02-23T09:18:31;92509.03;;;7.50;71.76
39613;BME280;25303;48.896;13.342;2023-02-23T09:21:15;92509.03;;;7.50;71.74
39613;BME280;25303;48.896;13.342;2023-02-23T09:24:03;92509.31;;;7.47;71.34
39613;BME280;25303;48.896;13.342;2023-02-23T09:26:47;92509.31;;;7.47;71.53
39613;BME280;25303;48.896;13.342;2023-02-23T09:29:29;92504.56;;;7.52;71.70
39613;BME280;25303;48.896;13.342;2023-02-23T09:32:13;92509.09;;;7.58;71.76
39613;BME280;25303;48.896;13.342;2023-02-23T09:34:56;92507.56;;;7.66;71.39
39613;BME280;25303;48.896;13.342;2023-02-23T09:37:39;92509.53;;;7.72;71.18
39613;BME280;25303;48.896;13.342;2023-02-23T09:40:25;92511.66;;;7.77;71.04
39613;BME280;25303;48.896;13.342;2023-02-23T09:43:12;92501.41;;;7.77;70.94
39613;BME280;25303;48.896;13.342;2023-02-23T09:46:06;92506.38;;;7.78;70.94
39613;BME280;25303;48.896;13.342;2023-02-23T09:48:54;92515.50;;;7.81;71.08
39613;BME280;25303;48.896;13.342;2023-02-23T09:51:40;92509.16;;;7.85;71.09
39613;BME280;25303;48.896;13.342;2023-02-23T09:54:28;92514.78;;;7.88;71.05
39613;BME280;25303;48.896;13.342;2023-02-23T09:57:16;92507.75;;;7.90;70.71
39613;BME280;25303;48.896;13.342;2023-02-23T10:00:00;92510.97;;;7.93;70.72
39613;BME280;25303;48.896;13.342;2023-02-23T10:03:02;92510.84;;;7.94;70.75
39613;BME280;25303;48.896;13.342;2023-02-23T10:05:52;92509.34;;;7.91;70.72
39613;BME280;25303;48.896;13.342;2023-02-23T10:08:45;92507.44;;;7.94;70.76
39613;BME280;25303;48.896;13.342;2023-02-23T10:11:34;92506.22;;;7.98;70.90
39613;BME280;25303;48.896;13.342;2023-02-23T10:14:32;92504.97;;;8.02;70.69
39613;BME280;25303;48.896;13.342;2023-02-23T10:17:24;92517.78;;;8.02;70.32
39613;BME280;25303;48.896;13.342;2023-02-23T10:20:18;92516.97;;;8.01;70.33
39613;BME280;25303;48.896;13.342;2023-02-23T10:23:06;92514.84;;;7.97;69.96
39613;BME280;25303;48.896;13.342;2023-02-23T10:25:50;92515.97;;;7.94;70.21
39613;BME280;25303;48.896;13.342;2023-02-23T10:28:36;92517.69;;;7.94;69.79
39613;BME280;25303;48.896;13.342;2023-02-23T10:31:27;92515.59;;;7.89;69.78
39613;BME280;25303;48.896;13.342;2023-02-23T10:34:13;92515.44;;;7.90;70.00
39613;BME280;25303;48.896;13.342;2023-02-23T10:36:59;92518.00;;;7.90;70.18
39613;BME280;25303;48.896;13.342;2023-02-23T10:39:42;92516.09;;;7.93;70.16
39613;BME280;25303;48.896;13.342;2023-02-23T10:42:26;92521.09;;;7.94;70.31
39613;BME280;25303;48.896;13.342;2023-02-23T10:45:16;92519.16;;;7.96;70.13
39613;BME280;25303;48.896;13.342;2023-02-23T10:48:06;92510.66;;;7.96;70.10
39613;BME280;25303;48.896;13.342;2023-02-23T10:50:53;92516.09;;;7.93;69.99
39613;BME280;25303;48.896;13.342;2023-02-23T10:53:43;92517.03;;;7.91;70.23
39613;BME280;25303;48.896;13.342;2023-02-23T10:56:26;92512.88;;;7.90;70.10
39613;BME280;25303;48.896;13.342;2023-02-23T10:59:18;92515.72;;;7.87;70.08
39613;BME280;25303;48.896;13.342;2023-02-23T11:02:15;92506.13;;;7.89;69.95
39613;BME280;25303;48.896;13.342;2023-02-23T11:05:05;92501.66;;;7.91;69.85
39613;BME280;25303;48.896;13.342;2023-02-23T11:07:48;92505.03;;;7.92;69.94
39613;BME280;25303;48.896;13.342;2023-02-23T11:10:31;92498.97;;;7.93;69.98
39613;BME280;25303;48.896;13.342;2023-02-23T11:13:20;92496.41;;;7.93;70.13
39613;BME280;25303;48.896;13.342;2023-02-23T11:16:07;92501.38;;;7.95;70.07
39613;BME280;25303;48.896;13.342;2023-02-23T11:18:53;92497.56;;;7.99;70.15
39613;BME280;25303;48.896;13.342;2023-02-23T11:21:38;92494.84;;;8.00;70.00
39613;BME280;25303;48.896;13.342;2023-02-23T11:24:24;92492.16;;;8.02;70.08
39613;BME280;25303;48.896;13.342;2023-02-23T11:27:18;92495.50;;;8.02;70.26
39613;BME280;25303;48.896;13.342;2023-02-23T11:30:04;92495.78;;;7.99;70.11
39613;BME280;25303;48.896;13.342;2023-02-23T11:32:49;92493.22;;;7.99;70.27
39613;BME280;25303;48.896;13.342;2023-02-23T11:35:34;92488.09;;;7.99;70.29
39613;BME280;25303;48.896;13.342;2023-02-23T11:38:22;92489.72;;;8.00;70.33
39613;BME280;25303;48.896;13.342;2023-02-23T11:41:17;92481.22;;;8.00;70.38
39613;BME280;25303;48.896;13.342;2023-02-23T11:44:00;92487.16;;;8.00;70.42
39613;BME280;25303;48.896;13.342;2023-02-23T11:46:47;92480.41;;;7.99;70.37
39613;BME280;25303;48.896;13.342;2023-02-23T11:49:32;92480.41;;;7.99;70.35
39613;BME280;25303;48.896;13.342;2023-02-23T11:52:19;92482.97;;;7.99;70.42
39613;BME280;25303;48.896;13.342;2023-02-23T11:55:06;92482.84;;;8.01;70.30
39613;BME280;25303;48.896;13.342;2023-02-23T11:58:20;92477.19;;;7.97;70.46
39613;BME280;25303;48.896;13.342;2023-02-23T12:01:06;92469.28;;;7.90;70.52
39613;BME280;25303;48.896;13.342;2023-02-23T12:03:54;92474.88;;;7.86;70.71
39613;BME280;25303;48.896;13.342;2023-02-23T12:06:39;92472.16;;;7.87;71.08
39613;BME280;25303;48.896;13.342;2023-02-23T12:09:25;92480.50;;;7.89;71.32
39613;BME280;25303;48.896;13.342;2023-02-23T12:12:13;92481.31;;;7.90;71.32
39613;BME280;25303;48.896;13.342;2023-02-23T12:15:03;92472.03;;;7.89;71.40
39613;BME280;25303;48.896;13.342;2023-02-23T12:17:52;92472.03;;;7.89;71.36
39613;BME280;25303;48.896;13.342;2023-02-23T12:20:40;92469.47;;;7.89;71.33
39613;BME280;25303;48.896;13.342;2023-02-23T12:23:25;92470.25;;;7.89;71.06
39613;BME280;25303;48.896;13.342;2023-02-23T12:26:15;92464.16;;;7.90;71.32
39613;BME280;25303;48.896;13.342;2023-02-23T12:29:07;92468.63;;;7.88;71.39
39613;BME280;25303;48.896;13.342;2023-02-23T12:31:57;92463.22;;;7.91;71.34
39613;BME280;25303;48.896;13.342;2023-02-23T12:34:47;92462.75;;;7.96;71.48
39613;BME280;25303;48.896;13.342;2023-02-23T12:37:36;92464.25;;;7.99;71.61
39613;BME280;25303;48.896;13.342;2023-02-23T12:40:22;92460.41;;;8.03;71.79
39613;BME280;25303;48.896;13.342;2023-02-23T12:43:13;92469.56;;;8.05;71.43
39613;BME280;25303;48.896;13.342;2023-02-23T12:46:05;92457.53;;;8.06;71.79
39613;BME280;25303;48.896;13.342;2023-02-23T12:48:56;92464.28;;;8.07;71.87
39613;BME280;25303;48.896;13.342;2023-02-23T12:51:44;92460.75;;;8.08;71.63
39613;BME280;25303;48.896;13.342;2023-02-23T12:54:31;92463.19;;;8.10;71.73
39613;BME280;25303;48.896;13.342;2023-02-23T12:57:22;92459.50;;;8.12;71.75
39613;BME280;25303;48.896;13.342;2023-02-23T13:00:25;92460.97;;;8.15;71.98
39613;BME280;25303;48.896;13.342;2023-02-23T13:03:35;92460.66;;;8.18;71.88
39613;BME280;25303;48.896;13.342;2023-02-23T13:06:28;92458.44;;;8.23;71.98
39613;BME280;25303;48.896;13.342;2023-02-23T13:09:29;92458.00;;;8.28;72.22
39613;BME280;25303;48.896;13.342;2023-02-23T13:12:28;92459.78;;;8.35;72.33
39613;BME280;25303;48.896;13.342;2023-02-23T13:15:23;92458.72;;;8.46;72.29
39613;BME280;25303;48.896;13.342;2023-02-23T13:18:12;92456.88;;;8.57;72.12
39613;BME280;25303;48.896;13.342;2023-02-23T13:21:04;92451.00;;;8.73;72.34
39613;BME280;25303;48.896;13.342;2023-02-23T13:23:55;92455.38;;;8.89;71.58
39613;BME280;25303;48.896;13.342;2023-02-23T13:26:46;92458.63;;;8.99;71.07
39613;BME280;25303;48.896;13.342;2023-02-23T13:29:35;92454.75;;;9.03;71.10
39613;BME280;25303;48.896;13.342;2023-02-23T13:32:22;92448.66;;;9.04;70.79
39613;BME280;25303;48.896;13.342;2023-02-23T13:35:12;92458.94;;;9.04;70.78
39613;BME280;25303;48.896;13.342;2023-02-23T13:38:03;92455.28;;;9.07;70.98
39613;BME280;25303;48.896;13.342;2023-02-23T13:40:51;92446.75;;;9.06;70.71
39613;BME280;25303;48.896;13.342;2023-02-23T13:43:44;92449.50;;;9.05;70.71
39613;BME280;25303;48.896;13.342;2023-02-23T13:46:41;92453.00;;;9.04;70.89
39613;BME280;25303;48.896;13.342;2023-02-23T13:49:35;92453.00;;;9.04;70.67
39613;BME280;25303;48.896;13.342;2023-02-23T13:52:25;92447.88;;;9.04;70.58
39613;BME280;25303;48.896;13.342;2023-02-23T13:55:38;92448.66;;;9.04;70.66
39613;BME280;25303;48.896;13.342;2023-02-23T13:58:31;92448.53;;;9.06;70.52
39613;BME280;25303;48.896;13.342;2023-02-23T14:01:16;92456.06;;;9.07;70.32
39613;BME280;25303;48.896;13.342;2023-02-23T14:04:02;92449.97;;;9.08;70.41
39613;BME280;25303;48.896;13.342;2023-02-23T14:06:53;92445.00;;;9.07;70.31
39613;BME280;25303;48.896;13.342;2023-02-23T14:09:41;92446.59;;;9.08;70.32
39613;BME280;25303;48.896;13.342;2023-02-23T14:12:32;92443.09;;;9.09;70.33
39613;BME280;25303;48.896;13.342;2023-02-23T14:15:40;92441.47;;;9.08;70.24
39613;BME280;25303;48.896;13.342;2023-02-23T14:18:29;92446.59;;;9.08;70.38
39613;BME280;25303;48.896;13.342;2023-02-23T14:21:18;92444.19;;;9.06;70.30
39613;BME280;25303;48.896;13.342;2023-02-23T14:24:16;92437.44;;;9.05;70.38
39613;BME280;25303;48.896;13.342;2023-02-23T14:27:32;92440.19;;;9.04;70.07
39613;BME280;25303;48.896;13.342;2023-02-23T14:30:25;92441.31;;;9.01;70.20
39613;BME280;25303;48.896;13.342;2023-02-23T14:33:34;92435.34;;;9.01;70.28
39613;BME280;25303;48.896;13.342;2023-02-23T14:36:32;92436.00;;;9.03;70.17
39613;BME280;25303;48.896;13.342;2023-02-23T14:39:18;92440.00;;;9.05;70.11
39613;BME280;25303;48.896;13.342;2023-02-23T14:42:05;92437.44;;;9.05;70.16
39613;BME280;25303;48.896;13.342;2023-02-23T14:44:51;92443.41;;;9.06;70.27
39613;BME280;25303;48.896;13.342;2023-02-23T14:47:41;92438.25;;;9.06;70.16
39613;BME280;25303;48.896;13.342;2023-02-23T14:50:26;92440.50;;;9.09;70.28
39613;BME280;25303;48.896;13.342;2023-02-23T14:53:20;92437.00;;;9.10;70.24